Terminal Aerodrome Forecast
Issued by NWS

Home | Current Version | Previous Version | Text Only | Print | Product List | Glossary On
Versions: 1 2 3 4 5 6 7 8 9 10 11 12 13 14 15 16 17 18 19
000
FTUS43 KILX 100254 AAA
TAFBMI
TAF AMD
KBMI 100254Z 1003/1024 25007KT P6SM BKN028
     FM100600 VRB04KT P6SM OVC100
     FM101300 17006KT P6SM OVC100
     FM102200 14009KT P6SM BKN045 OVC090=

USA.gov is the U.S. government's official web portal to all federal, state and local government web resources and services.